Time;durP1;ratioP1;P1;durP2;ratioP2;P2;SDS_P1;SDS_P2;PMS_P1;PMS_P2;Temp;Humidity;BMP_temperature;BMP_pressure;BME280_temperature;BME280_humidity;BME280_pressure;Samples;Min_cycle;Max_cycle;Signal;HPM_P1;HPM_P2
2023/07/17 00:00:05;;;;;;;16.37;15.47;;;19.90;99.90;;;;;;5011736;28;20524;-74
2023/07/17 00:02:32;;;;;;;17.33;16.27;;;19.90;99.90;;;;;;5011589;28;20454;-75
2023/07/17 00:04:58;;;;;;;16.40;15.33;;;19.90;99.90;;;;;;5011762;28;20458;-75
2023/07/17 00:07:25;;;;;;;15.80;14.93;;;19.80;99.90;;;;;;5011777;28;20454;-75
2023/07/17 00:09:53;;;;;;;17.60;16.27;;;19.70;99.90;;;;;;5011726;28;20528;-75
2023/07/17 00:12:20;;;;;;;16.13;15.23;;;19.70;99.90;;;;;;5011749;28;20461;-75
2023/07/17 00:14:47;;;;;;;16.17;15.27;;;19.70;99.90;;;;;;5011608;28;20446;-75
2023/07/17 00:17:14;;;;;;;17.67;16.67;;;19.60;99.90;;;;;;5011568;28;20450;-75
2023/07/17 00:19:41;;;;;;;19.37;18.10;;;19.60;99.90;;;;;;5011529;28;20496;-76
2023/07/17 00:22:08;;;;;;;18.20;16.90;;;19.60;99.90;;;;;;5011619;28;20450;-75
2023/07/17 00:24:35;;;;;;;17.47;16.47;;;19.50;99.90;;;;;;5011440;28;20818;-75
2023/07/17 00:27:04;;;;;;;17.43;16.53;;;19.50;99.90;;;;;;5011362;28;20446;-75
2023/07/17 00:29:31;;;;;;;18.13;16.93;;;19.50;99.90;;;;;;5011467;28;20453;-75
2023/07/17 00:31:58;;;;;;;16.83;15.83;;;19.50;99.90;;;;;;5011619;28;20449;-75
2023/07/17 00:34:25;;;;;;;18.37;16.97;;;19.50;99.90;;;;;;5011333;28;20827;-75
2023/07/17 00:36:52;;;;;;;18.43;17.20;;;19.50;99.90;;;;;;5011101;28;20560;-74
2023/07/17 00:39:19;;;;;;;18.03;17.03;;;19.50;99.90;;;;;;5011384;28;20482;-75
2023/07/17 00:41:46;;;;;;;17.33;16.33;;;19.50;99.90;;;;;;5011183;28;20469;-75
2023/07/17 00:44:14;;;;;;;15.87;14.90;;;19.40;99.90;;;;;;5011186;28;20445;-75
2023/07/17 00:46:41;;;;;;;15.20;14.40;;;19.40;99.90;;;;;;5011191;28;20481;-75
2023/07/17 00:49:09;;;;;;;17.30;16.37;;;19.50;99.90;;;;;;5011073;28;20442;-76
2023/07/17 00:51:38;;;;;;;16.17;15.37;;;19.60;99.90;;;;;;5011191;28;20862;-75
2023/07/17 00:54:06;;;;;;;19.37;17.67;;;19.70;99.90;;;;;;5011047;28;20442;-74
2023/07/17 00:56:34;;;;;;;17.00;16.10;;;19.80;99.90;;;;;;5010888;28;20481;-74
2023/07/17 00:59:01;;;;;;;17.00;16.00;;;19.80;99.90;;;;;;5010884;28;20488;-74
2023/07/17 01:01:30;;;;;;;17.27;16.23;;;19.90;99.90;;;;;;5010938;28;20834;-74
2023/07/17 01:03:58;;;;;;;16.77;15.80;;;19.90;99.90;;;;;;5011108;28;20832;-74
2023/07/17 01:06:27;;;;;;;17.57;16.47;;;19.90;99.90;;;;;;5010905;28;20469;-74
2023/07/17 01:08:54;;;;;;;16.07;15.27;;;19.90;99.90;;;;;;5013224;28;20460;-74
2023/07/17 01:11:20;;;;;;;16.90;15.50;;;19.90;99.90;;;;;;5014946;28;21026;-74
2023/07/17 01:13:49;;;;;;;17.80;16.70;;;20.00;99.90;;;;;;5015018;28;20457;-74
2023/07/17 01:16:16;;;;;;;17.27;16.17;;;20.10;99.90;;;;;;5014898;28;20979;-74
2023/07/17 01:18:44;;;;;;;16.80;15.50;;;20.10;99.90;;;;;;5014904;28;20445;-75
2023/07/17 01:21:14;;;;;;;17.10;16.00;;;20.10;99.90;;;;;;5014657;28;20485;-74
2023/07/17 01:23:44;;;;;;;15.50;14.80;;;20.10;99.90;;;;;;5014822;28;20470;-75
2023/07/17 01:26:14;;;;;;;16.93;16.03;;;20.20;99.90;;;;;;5014838;28;20512;-75
2023/07/17 01:28:42;;;;;;;15.10;14.30;;;20.30;99.90;;;;;;5014706;28;20457;-75
2023/07/17 01:31:08;;;;;;;15.40;14.60;;;20.40;99.90;;;;;;5014632;28;20445;-74
2023/07/17 01:33:36;;;;;;;15.27;14.40;;;20.50;99.90;;;;;;5014529;28;20457;-75
2023/07/17 01:36:04;;;;;;;35.20;33.30;;;20.50;99.90;;;;;;5014682;28;20473;-90
2023/07/17 01:38:30;;;;;;;37.73;35.63;;;20.30;99.90;;;;;;5015239;28;20458;-79
2023/07/17 01:40:59;;;;;;;39.00;36.90;;;19.80;99.90;;;;;;5013764;28;20542;-84
2023/07/17 01:43:25;;;;;;;38.30;36.00;;;19.40;99.90;;;;;;5013716;28;20449;-80
2023/07/17 01:45:52;;;;;;;36.20;34.17;;;19.10;99.90;;;;;;5013997;28;20540;-78
2023/07/17 01:48:19;;;;;;;40.23;37.77;;;18.90;99.90;;;;;;5013331;28;20461;-75
2023/07/17 01:50:46;;;;;;;38.50;36.20;;;18.80;99.90;;;;;;5013918;28;20441;-75
2023/07/17 01:53:13;;;;;;;39.83;37.83;;;18.70;99.90;;;;;;5013422;28;20453;-75
2023/07/17 01:55:40;;;;;;;39.43;37.23;;;18.70;99.90;;;;;;5013924;28;20476;-75
2023/07/17 01:58:08;;;;;;;39.10;36.90;;;18.70;99.90;;;;;;5013234;28;20481;-75
2023/07/17 02:00:36;;;;;;;37.70;35.60;;;18.70;99.90;;;;;;5013233;28;20485;-76
2023/07/17 02:03:03;;;;;;;36.90;34.90;;;18.70;99.90;;;;;;5014023;28;20486;-79
2023/07/17 02:05:30;;;;;;;33.70;32.10;;;18.70;99.90;;;;;;5013198;28;20458;-78
2023/07/17 02:07:57;;;;;;;31.30;29.70;;;18.70;99.90;;;;;;5013531;28;20457;-76
2023/07/17 02:10:24;;;;;;;31.63;30.03;;;18.70;99.90;;;;;;5013428;28;20457;-77
2023/07/17 02:12:51;;;;;;;29.43;27.77;;;18.80;99.90;;;;;;5013620;28;20468;-77
2023/07/17 02:15:19;;;;;;;26.33;25.03;;;18.80;99.90;;;;;;5013214;28;20445;-75
2023/07/17 02:17:46;;;;;;;25.13;23.70;;;18.80;99.90;;;;;;5013040;28;20456;-75
2023/07/17 02:20:13;;;;;;;25.80;24.30;;;18.90;99.90;;;;;;5012405;28;20489;-78
2023/07/17 02:22:40;;;;;;;24.10;22.73;;;19.00;99.90;;;;;;5009275;28;20458;-76
2023/07/17 02:25:08;;;;;;;21.73;20.23;;;19.20;99.90;;;;;;5012946;28;20492;-76
2023/07/17 02:27:35;;;;;;;20.40;19.40;;;19.30;99.90;;;;;;5003733;28;20446;-75
2023/07/17 02:30:02;;;;;;;19.73;18.60;;;19.40;99.90;;;;;;5012846;28;20477;-75
2023/07/17 02:32:30;;;;;;;18.57;17.57;;;19.60;99.90;;;;;;5012917;28;20450;-76
2023/07/17 02:34:57;;;;;;;20.90;19.70;;;19.70;99.90;;;;;;5011240;28;20449;-75
2023/07/17 02:37:24;;;;;;;21.53;19.83;;;19.80;99.90;;;;;;5012595;28;20450;-75
2023/07/17 02:39:51;;;;;;;20.73;19.73;;;19.80;99.90;;;;;;5012588;28;20569;-76
2023/07/17 02:42:18;;;;;;;21.03;19.40;;;19.70;99.90;;;;;;5012743;28;20980;-78
2023/07/17 02:44:45;;;;;;;19.43;18.20;;;19.80;99.90;;;;;;5013332;28;20465;-78
2023/07/17 02:47:12;;;;;;;19.60;18.47;;;19.80;99.90;;;;;;5012661;28;20847;-78
2023/07/17 02:49:40;;;;;;;19.27;18.00;;;19.80;99.90;;;;;;5013633;28;20470;-77
2023/07/17 02:52:08;;;;;;;19.50;18.20;;;19.80;99.90;;;;;;5012838;28;20458;-75
2023/07/17 02:54:36;;;;;;;19.87;18.70;;;19.90;99.90;;;;;;5013052;28;20461;-77
2023/07/17 02:57:03;;;;;;;19.83;18.40;;;19.80;99.90;;;;;;5012905;28;20505;-76
2023/07/17 02:59:30;;;;;;;19.40;18.17;;;19.90;99.90;;;;;;5013009;28;20465;-76
2023/07/17 03:01:57;;;;;;;20.07;18.87;;;19.90;99.90;;;;;;5012403;28;20465;-76
2023/07/17 03:04:24;;;;;;;20.70;19.60;;;20.00;99.90;;;;;;5012766;28;20490;-75
2023/07/17 03:06:52;;;;;;;19.43;18.43;;;19.90;99.90;;;;;;5012708;28;20493;-75
2023/07/17 03:09:19;;;;;;;18.60;17.70;;;19.90;99.90;;;;;;5012142;28;20461;-75
2023/07/17 03:11:46;;;;;;;20.47;19.37;;;19.80;99.90;;;;;;5012108;28;20472;-75
2023/07/17 03:14:13;;;;;;;20.00;18.80;;;19.80;99.90;;;;;;5011994;28;20485;-76
2023/07/17 03:16:39;;;;;;;20.03;18.77;;;19.80;99.90;;;;;;5012644;28;20465;-76
2023/07/17 03:19:06;;;;;;;22.43;20.73;;;19.80;99.90;;;;;;5012027;28;20462;-76
2023/07/17 03:21:33;;;;;;;21.50;19.90;;;19.70;99.90;;;;;;5002552;28;20481;-76
2023/07/17 03:24:01;;;;;;;19.40;18.30;;;19.60;99.90;;;;;;5012572;28;20534;-76
2023/07/17 03:26:27;;;;;;;20.77;19.57;;;19.60;99.90;;;;;;5012509;28;20525;-76
2023/07/17 03:28:54;;;;;;;21.20;19.90;;;19.50;99.90;;;;;;5011677;28;20451;-76
2023/07/17 03:31:21;;;;;;;19.23;18.10;;;19.50;99.90;;;;;;5011389;28;20450;-76
2023/07/17 03:33:48;;;;;;;18.90;17.60;;;19.50;99.90;;;;;;5011806;28;20960;-76
2023/07/17 03:36:14;;;;;;;19.80;18.60;;;19.50;99.90;;;;;;5011988;28;20473;-75
2023/07/17 03:38:41;;;;;;;18.73;17.77;;;19.50;99.90;;;;;;5011619;28;20458;-75
2023/07/17 03:41:09;;;;;;;20.40;18.90;;;19.50;99.90;;;;;;5011649;28;20571;-75
2023/07/17 03:43:36;;;;;;;19.57;18.27;;;19.40;99.90;;;;;;5011487;28;20461;-75
2023/07/17 03:46:03;;;;;;;21.43;19.57;;;19.40;99.90;;;;;;5011771;28;20454;-75
2023/07/17 03:48:29;;;;;;;20.87;19.90;;;19.30;99.90;;;;;;5012025;28;20438;-75
2023/07/17 03:50:56;;;;;;;20.10;18.63;;;19.30;99.90;;;;;;5012003;28;20504;-74
2023/07/17 03:53:23;;;;;;;19.27;17.97;;;19.30;99.90;;;;;;5011795;28;20469;-74
2023/07/17 03:55:49;;;;;;;18.90;17.90;;;19.30;99.90;;;;;;5011731;28;20461;-74
2023/07/17 03:58:17;;;;;;;18.77;17.57;;;19.30;99.90;;;;;;5011571;28;20486;-74
2023/07/17 04:00:44;;;;;;;19.50;18.30;;;19.40;99.90;;;;;;5011497;28;20500;-74
2023/07/17 04:03:11;;;;;;;19.10;18.03;;;19.40;99.90;;;;;;5011758;28;20963;-73
2023/07/17 04:05:37;;;;;;;18.57;17.47;;;19.30;99.90;;;;;;5011844;28;20472;-74
2023/07/17 04:08:04;;;;;;;18.43;17.20;;;19.40;99.90;;;;;;5011585;28;20453;-74
2023/07/17 04:10:31;;;;;;;19.03;17.73;;;19.40;99.90;;;;;;5011543;28;20456;-74
2023/07/17 04:12:58;;;;;;;18.53;17.70;;;19.40;99.90;;;;;;5011595;28;20457;-74
2023/07/17 04:15:28;;;;;;;19.17;18.07;;;19.30;99.90;;;;;;5011673;28;20454;-74
2023/07/17 04:17:55;;;;;;;17.40;16.50;;;19.30;99.90;;;;;;5011419;28;20523;-74
2023/07/17 04:20:23;;;;;;;18.37;17.47;;;19.30;99.90;;;;;;5011342;28;20480;-73
2023/07/17 04:22:50;;;;;;;17.40;16.40;;;19.30;99.90;;;;;;5011442;28;20445;-73
2023/07/17 04:25:16;;;;;;;17.07;16.20;;;19.30;99.90;;;;;;5011353;28;20937;-73
2023/07/17 04:27:43;;;;;;;17.60;16.50;;;19.30;99.90;;;;;;5011262;28;20959;-73
2023/07/17 04:30:10;;;;;;;17.90;16.70;;;19.30;99.90;;;;;;5011268;28;20458;-73
2023/07/17 04:32:38;;;;;;;18.17;17.27;;;19.30;99.90;;;;;;5011281;28;20454;-73
2023/07/17 04:35:06;;;;;;;19.17;18.13;;;19.40;99.90;;;;;;5011104;28;20846;-73
2023/07/17 04:37:33;;;;;;;18.67;17.60;;;19.40;99.90;;;;;;5011210;28;20450;-74
2023/07/17 04:40:00;;;;;;;17.67;16.77;;;19.60;99.90;;;;;;5011137;28;20454;-75
2023/07/17 04:42:26;;;;;;;18.33;17.53;;;19.80;99.90;;;;;;5011035;28;20453;-75
2023/07/17 04:44:53;;;;;;;18.37;17.17;;;20.00;99.90;;;;;;5010904;28;20975;-74
2023/07/17 04:47:20;;;;;;;17.00;16.10;;;20.40;99.90;;;;;;5011063;28;21160;-73
2023/07/17 04:49:49;;;;;;;17.70;16.73;;;20.60;99.90;;;;;;5011004;28;20476;-74
2023/07/17 04:52:15;;;;;;;16.17;15.30;;;20.80;99.90;;;;;;5012349;28;20537;-75
2023/07/17 04:54:42;;;;;;;17.73;16.80;;;21.00;99.90;;;;;;5030693;28;20457;-79
2023/07/17 04:57:09;;;;;;;16.33;15.37;;;21.10;99.90;;;;;;5030405;28;20481;-74
2023/07/17 04:59:35;;;;;;;16.80;16.10;;;21.00;99.90;;;;;;5008072;28;20483;-71
2023/07/17 05:02:02;;;;;;;18.13;17.00;;;20.70;99.90;;;;;;5006812;28;20497;-73
2023/07/17 05:04:29;;;;;;;18.47;17.57;;;20.50;99.90;;;;;;5007052;28;20462;-73
2023/07/17 05:06:58;;;;;;;16.97;16.17;;;20.50;99.90;;;;;;5002157;28;20860;-73
2023/07/17 05:09:24;;;;;;;16.87;15.70;;;20.50;99.90;;;;;;4999480;28;21007;-72
2023/07/17 05:11:51;;;;;;;17.33;16.53;;;20.70;99.90;;;;;;4999430;28;20447;-73
2023/07/17 05:14:18;;;;;;;16.37;15.67;;;20.90;99.90;;;;;;5000287;28;20446;-72
2023/07/17 05:16:45;;;;;;;19.23;17.90;;;21.20;99.90;;;;;;5001399;28;20450;-74
2023/07/17 05:19:11;;;;;;;16.17;15.47;;;21.30;99.90;;;;;;4999546;28;20479;-73
2023/07/17 05:21:38;;;;;;;17.00;16.00;;;21.20;99.90;;;;;;5000087;28;20481;-73
2023/07/17 05:24:07;;;;;;;17.20;16.27;;;21.50;99.90;;;;;;5001264;28;20968;-73
2023/07/17 05:26:33;;;;;;;16.90;16.00;;;21.80;99.90;;;;;;5000793;28;20856;-73
2023/07/17 05:29:00;;;;;;;16.27;15.40;;;22.10;99.90;;;;;;5004537;28;20696;-75
2023/07/17 05:31:27;;;;;;;16.70;15.63;;;22.20;99.90;;;;;;5009888;28;20456;-73
2023/07/17 05:33:55;;;;;;;16.20;15.40;;;22.00;99.90;;;;;;5010464;28;20461;-73
2023/07/17 05:36:22;;;;;;;17.10;16.10;;;21.80;99.90;;;;;;5010410;28;20806;-72
2023/07/17 05:38:49;;;;;;;16.13;15.17;;;21.70;99.90;;;;;;5010636;28;20449;-74
2023/07/17 05:41:17;;;;;;;16.80;15.57;;;21.90;99.90;;;;;;5010033;28;20854;-74
2023/07/17 05:43:44;;;;;;;17.20;16.13;;;22.30;99.90;;;;;;5010502;28;20462;-74
2023/07/17 05:46:11;;;;;;;15.73;14.93;;;22.30;99.90;;;;;;5009691;28;20454;-74
2023/07/17 05:48:38;;;;;;;16.63;15.83;;;22.10;99.90;;;;;;5009765;28;20461;-75
2023/07/17 05:51:05;;;;;;;19.17;17.37;;;22.20;99.90;;;;;;5009659;28;20454;-75
2023/07/17 05:53:32;;;;;;;18.37;16.80;;;22.40;99.90;;;;;;5010623;28;20460;-75
2023/07/17 05:55:58;;;;;;;17.30;16.20;;;22.60;99.90;;;;;;5013962;28;20544;-75
2023/07/17 05:58:27;;;;;;;18.23;17.23;;;22.60;99.90;;;;;;5013566;28;20454;-75
2023/07/17 06:00:53;;;;;;;17.63;16.13;;;22.60;99.90;;;;;;5013299;28;20521;-76
2023/07/17 06:03:20;;;;;;;16.83;15.60;;;22.40;99.90;;;;;;5008339;28;20898;-75
2023/07/17 06:05:47;;;;;;;15.57;14.57;;;22.80;99.90;;;;;;5013049;28;20485;-76
2023/07/17 06:08:14;;;;;;;16.57;15.57;;;23.20;99.90;;;;;;5013791;28;20458;-74
2023/07/17 06:10:43;;;;;;;18.70;17.43;;;23.60;99.90;;;;;;5013738;28;20454;-77
2023/07/17 06:13:09;;;;;;;16.13;15.13;;;23.90;99.90;;;;;;5013767;28;20596;-76
2023/07/17 06:15:37;;;;;;;15.60;14.90;;;24.10;99.90;;;;;;5013687;28;20449;-77
2023/07/17 06:18:04;;;;;;;16.67;15.47;;;24.50;99.90;;;;;;5013708;28;20967;-76
2023/07/17 06:20:31;;;;;;;17.20;16.23;;;25.00;99.90;;;;;;5013664;28;20454;-77
2023/07/17 06:22:58;;;;;;;16.17;15.23;;;25.90;99.50;;;;;;5013699;28;20452;-76
2023/07/17 06:25:24;;;;;;;17.00;16.10;;;26.20;97.60;;;;;;5013533;28;20434;-78
2023/07/17 07:55:38;;;;;;;19.33;18.10;;;34.20;49.20;;;;;;6225557;22;1206337;-72
2023/07/17 07:58:05;;;;;;;19.73;18.50;;;34.10;48.40;;;;;;6269389;22;20168;-73
2023/07/17 08:00:32;;;;;;;17.50;16.70;;;34.20;49.30;;;;;;6266054;22;20537;-73
2023/07/17 08:02:58;;;;;;;17.53;16.67;;;34.70;48.20;;;;;;6272162;22;20410;-74
2023/07/17 08:05:25;;;;;;;19.30;18.10;;;34.40;47.00;;;;;;6272234;22;20410;-72
2023/07/17 08:07:52;;;;;;;18.73;17.63;;;34.30;47.00;;;;;;6274112;22;20407;-74
2023/07/17 08:10:19;;;;;;;17.87;16.87;;;33.90;48.30;;;;;;6273536;22;20403;-75
2023/07/17 08:12:47;;;;;;;19.27;18.30;;;34.00;48.80;;;;;;6274426;22;20964;-73
2023/07/17 08:15:13;;;;;;;18.50;17.37;;;34.00;48.00;;;;;;6274408;22;20407;-75
2023/07/17 08:17:40;;;;;;;17.37;16.57;;;34.60;46.10;;;;;;6274633;22;20413;-74
2023/07/17 08:20:08;;;;;;;18.70;17.70;;;34.80;45.90;;;;;;6273272;22;20601;-74
2023/07/17 08:22:36;;;;;;;15.87;15.20;;;34.80;44.50;;;;;;6274193;22;20808;-75
2023/07/17 08:25:02;;;;;;;19.10;17.30;;;34.90;46.00;;;;;;6272913;22;20415;-75
2023/07/17 08:27:29;;;;;;;17.77;16.87;;;35.00;45.40;;;;;;6273210;22;20407;-75
2023/07/17 08:29:57;;;;;;;16.80;15.77;;;33.80;47.10;;;;;;6273508;22;20438;-75
2023/07/17 08:32:24;;;;;;;18.70;17.67;;;33.30;48.50;;;;;;6273729;22;20411;-75
2023/07/17 08:34:51;;;;;;;18.60;17.50;;;34.20;48.40;;;;;;6272539;22;20399;-75
2023/07/17 08:37:17;;;;;;;18.03;16.60;;;34.60;45.90;;;;;;6273119;22;20402;-76
2023/07/17 08:39:44;;;;;;;19.10;18.00;;;34.70;45.10;;;;;;6272692;22;20729;-73
2023/07/17 08:42:12;;;;;;;17.80;16.90;;;34.50;46.00;;;;;;6272989;22;20407;-73
2023/07/17 08:44:39;;;;;;;18.30;17.33;;;34.20;46.40;;;;;;6273766;22;20426;-75
2023/07/17 08:47:08;;;;;;;18.77;17.80;;;33.90;47.00;;;;;;6272882;22;20956;-73
2023/07/17 08:49:38;;;;;;;18.10;17.10;;;34.10;47.40;;;;;;6273126;22;20447;-74
2023/07/17 08:52:07;;;;;;;17.43;16.43;;;33.50;46.30;;;;;;6272981;22;20434;-74
2023/07/17 08:54:34;;;;;;;18.63;17.63;;;33.00;46.50;;;;;;6248791;22;20522;-74
2023/07/17 08:57:04;;;;;;;17.80;16.90;;;32.90;47.30;;;;;;6242402;23;20415;-74
2023/07/17 08:59:32;;;;;;;18.93;17.60;;;33.60;44.70;;;;;;6242600;23;20411;-74
2023/07/17 09:02:00;;;;;;;16.90;16.00;;;32.90;44.60;;;;;;6242302;23;20411;-75
2023/07/17 09:04:30;;;;;;;18.13;17.33;;;32.20;45.20;;;;;;6242715;23;20419;-74
2023/07/17 09:06:57;;;;;;;18.60;17.80;;;32.20;45.80;;;;;;6242526;23;20731;-74
2023/07/17 09:09:24;;;;;;;17.43;16.53;;;32.00;46.20;;;;;;6242775;23;20435;-74
2023/07/17 09:12:07;;;;;;;17.30;16.50;;;32.10;46.00;;;;;;6243320;23;20400;-74
2023/07/17 09:14:33;;;;;;;18.83;17.67;;;32.20;46.30;;;;;;6242590;23;20915;-74
2023/07/17 09:17:02;;;;;;;17.10;16.30;;;32.50;46.20;;;;;;6242104;23;20410;-74
2023/07/17 09:19:31;;;;;;;18.70;17.80;;;33.30;44.90;;;;;;6242466;23;20412;-74
2023/07/17 09:22:03;;;;;;;18.40;17.30;;;33.60;44.30;;;;;;6242031;23;20408;-74
2023/07/17 09:24:32;;;;;;;17.70;16.70;;;33.40;44.50;;;;;;6241712;23;20452;-74
2023/07/17 09:26:59;;;;;;;18.80;17.70;;;32.90;45.40;;;;;;6242219;23;20404;-73
2023/07/17 09:29:26;;;;;;;19.00;18.10;;;33.00;46.10;;;;;;6242236;23;20446;-74
2023/07/17 09:31:52;;;;;;;18.03;17.20;;;34.00;45.50;;;;;;6242034;23;21110;-73
2023/07/17 09:34:19;;;;;;;18.60;17.30;;;35.00;43.40;;;;;;6242518;23;20408;-74
2023/07/17 09:36:50;;;;;;;18.20;17.40;;;35.20;43.00;;;;;;6241844;23;20883;-74
2023/07/17 09:39:17;;;;;;;16.60;16.00;;;35.70;41.40;;;;;;6242528;23;20404;-74
2023/07/17 09:41:44;;;;;;;17.57;16.77;;;36.10;41.00;;;;;;6241889;23;20423;-74
2023/07/17 09:44:16;;;;;;;18.80;17.90;;;36.80;40.90;;;;;;6242224;23;20416;-74
2023/07/17 09:46:44;;;;;;;18.90;17.50;;;36.50;40.50;;;;;;6241880;23;20705;-73
2023/07/17 09:49:11;;;;;;;18.53;17.63;;;36.10;41.90;;;;;;6242122;23;20443;-74
2023/07/17 09:51:37;;;;;;;18.57;17.67;;;35.90;42.40;;;;;;6242582;23;20409;-74
2023/07/17 09:54:06;;;;;;;17.60;16.90;;;36.50;41.00;;;;;;6241647;22;20432;-73
2023/07/17 09:56:33;;;;;;;19.50;18.63;;;37.00;39.70;;;;;;6242431;23;20913;-73
2023/07/17 09:59:10;;;;;;;19.07;18.07;;;37.10;40.00;;;;;;6241952;23;20400;-73
2023/07/17 10:01:38;;;;;;;18.80;17.80;;;36.80;40.60;;;;;;6241909;23;20949;-74
2023/07/17 10:04:07;;;;;;;19.33;18.30;;;36.70;39.60;;;;;;6242039;23;20395;-73
2023/07/17 10:06:35;;;;;;;20.17;19.23;;;36.30;40.40;;;;;;6241797;23;20410;-73
2023/07/17 10:09:05;;;;;;;19.00;18.20;;;36.40;41.10;;;;;;6241529;23;20755;-74
2023/07/17 10:11:33;;;;;;;17.57;16.70;;;36.50;40.30;;;;;;6241259;23;20419;-74
2023/07/17 10:14:00;;;;;;;19.03;18.03;;;36.00;40.40;;;;;;6241758;23;20404;-74
2023/07/17 10:16:28;;;;;;;20.37;19.37;;;36.40;40.10;;;;;;6242035;23;20466;-74
2023/07/17 10:18:56;;;;;;;20.73;19.70;;;36.80;39.60;;;;;;6242226;23;20404;-74
2023/07/17 10:21:23;;;;;;;19.63;18.50;;;37.40;39.50;;;;;;6242102;23;20807;-74
2023/07/17 10:23:51;;;;;;;18.93;18.13;;;37.10;39.40;;;;;;6242139;23;20740;-74
2023/07/17 10:26:20;;;;;;;18.43;17.53;;;36.90;39.80;;;;;;6240958;23;20408;-74
2023/07/17 10:28:53;;;;;;;19.70;18.80;;;35.70;39.60;;;;;;6241939;23;20771;-75
2023/07/17 10:31:21;;;;;;;20.07;18.80;;;36.50;40.60;;;;;;6241470;23;20399;-74
2023/07/17 10:33:50;;;;;;;19.80;18.90;;;37.40;38.90;;;;;;6242527;23;20408;-74
2023/07/17 10:36:17;;;;;;;20.40;19.10;;;37.10;39.20;;;;;;6242571;23;20408;-74
2023/07/17 10:38:51;;;;;;;19.33;18.33;;;37.70;38.20;;;;;;6241979;23;20411;-75
2023/07/17 10:41:27;;;;;;;20.93;19.73;;;37.60;38.50;;;;;;6242280;23;20487;-75
2023/07/17 10:43:56;;;;;;;20.17;19.17;;;37.80;38.50;;;;;;6242092;23;20916;-75
2023/07/17 10:46:29;;;;;;;19.07;18.07;;;37.10;38.60;;;;;;6242107;23;20901;-75
2023/07/17 10:49:05;;;;;;;19.67;18.77;;;36.40;39.00;;;;;;6242402;23;20443;-75
2023/07/17 10:51:32;;;;;;;19.10;18.20;;;36.20;40.00;;;;;;6242001;23;20541;-75
2023/07/17 10:53:58;;;;;;;20.70;19.80;;;36.70;39.10;;;;;;6241401;22;20428;-75
2023/07/17 10:56:26;;;;;;;20.70;19.90;;;37.90;36.90;;;;;;6241574;23;20768;-75
2023/07/17 10:58:52;;;;;;;18.50;17.57;;;37.70;37.70;;;;;;6242101;23;20416;-75
2023/07/17 11:01:20;;;;;;;17.93;17.03;;;37.80;37.10;;;;;;6241658;23;20430;-75
2023/07/17 11:03:48;;;;;;;19.43;18.53;;;37.90;36.50;;;;;;6241995;23;20403;-75
2023/07/17 11:06:15;;;;;;;18.47;17.67;;;37.10;38.20;;;;;;6242129;23;21052;-75
2023/07/17 11:08:43;;;;;;;18.93;18.03;;;36.80;38.30;;;;;;6241790;23;20403;-76
2023/07/17 11:11:10;;;;;;;20.30;19.20;;;36.10;38.60;;;;;;6242386;23;20408;-75
2023/07/17 11:13:37;;;;;;;17.70;16.80;;;35.90;38.90;;;;;;6241511;23;20966;-75
2023/07/17 11:16:08;;;;;;;19.70;18.70;;;34.90;38.90;;;;;;6242714;23;20423;-73
2023/07/17 11:18:44;;;;;;;18.00;17.10;;;34.00;41.40;;;;;;6243827;23;20502;-75
2023/07/17 11:21:11;;;;;;;17.63;16.63;;;34.00;41.90;;;;;;6243980;23;20449;-74
2023/07/17 11:23:45;;;;;;;18.60;17.70;;;34.00;41.70;;;;;;6244180;23;20407;-74
2023/07/17 11:26:12;;;;;;;18.20;17.20;;;33.70;41.90;;;;;;6243522;23;20852;-74
2023/07/17 11:28:39;;;;;;;19.47;18.23;;;33.40;41.60;;;;;;6244199;23;20739;-74
2023/07/17 11:31:17;;;;;;;17.10;16.20;;;33.40;43.40;;;;;;6241861;23;20439;-75
2023/07/17 11:33:51;;;;;;;16.27;15.50;;;33.00;43.00;;;;;;6243599;23;20403;-75
2023/07/17 11:36:18;;;;;;;18.77;17.70;;;32.90;43.00;;;;;;6243600;23;20399;-75
2023/07/17 11:38:45;;;;;;;19.40;18.50;;;33.20;43.20;;;;;;6243405;23;20408;-74
2023/07/17 11:41:11;;;;;;;17.40;16.60;;;34.60;42.20;;;;;;6243633;23;20410;-75
2023/07/17 11:43:38;;;;;;;17.97;17.07;;;35.70;40.90;;;;;;6243528;23;20415;-75
2023/07/17 11:46:07;;;;;;;17.33;16.40;;;36.70;39.30;;;;;;6243237;23;20419;-75
2023/07/17 11:48:35;;;;;;;18.60;17.80;;;37.10;38.60;;;;;;6243736;23;20411;-75
2023/07/17 11:51:05;;;;;;;17.67;16.87;;;37.00;38.20;;;;;;6243372;23;20776;-75
2023/07/17 11:53:33;;;;;;;19.07;18.17;;;37.30;38.40;;;;;;6243338;22;20435;-74
2023/07/17 11:56:00;;;;;;;20.30;19.40;;;38.30;37.40;;;;;;6243002;23;20435;-74
2023/07/17 11:58:29;;;;;;;20.40;19.40;;;38.00;37.70;;;;;;6243058;23;20411;-74
2023/07/17 12:00:58;;;;;;;18.23;17.43;;;37.90;37.60;;;;;;6243147;23;20431;-75
2023/07/17 12:03:25;;;;;;;20.30;19.40;;;37.80;37.50;;;;;;6243690;23;20414;-74
2023/07/17 12:05:52;;;;;;;19.77;18.80;;;37.80;36.90;;;;;;6243622;23;20404;-75
2023/07/17 12:08:20;;;;;;;19.10;18.20;;;38.10;37.10;;;;;;6242879;23;20903;-75
2023/07/17 12:10:47;;;;;;;21.23;19.80;;;38.40;37.30;;;;;;6243175;23;20443;-75
2023/07/17 12:13:14;;;;;;;19.70;18.70;;;38.70;36.10;;;;;;6242818;23;20709;-74
2023/07/17 12:15:41;;;;;;;19.57;18.67;;;37.10;37.90;;;;;;6243288;23;20461;-75
2023/07/17 12:18:07;;;;;;;18.83;17.93;;;36.60;38.30;;;;;;6243489;23;20408;-75
2023/07/17 12:20:34;;;;;;;18.83;17.73;;;36.60;38.10;;;;;;6243216;23;20410;-75
2023/07/17 12:23:02;;;;;;;18.23;17.43;;;35.90;39.50;;;;;;6242998;23;20404;-74
2023/07/17 12:25:31;;;;;;;19.07;17.97;;;34.70;41.20;;;;;;6243053;23;20738;-74
2023/07/17 12:28:01;;;;;;;18.27;17.43;;;35.00;40.90;;;;;;6243136;23;20416;-75
2023/07/17 12:30:29;;;;;;;18.37;17.40;;;36.60;39.20;;;;;;6242926;23;20483;-75
2023/07/17 12:32:57;;;;;;;18.43;17.63;;;38.30;37.30;;;;;;6243009;23;20407;-75
2023/07/17 12:35:23;;;;;;;18.07;17.27;;;38.50;36.00;;;;;;6242913;23;20408;-75
2023/07/17 12:37:50;;;;;;;20.53;19.37;;;38.00;37.10;;;;;;6243044;23;20415;-75
2023/07/17 12:40:18;;;;;;;19.70;18.77;;;36.80;37.20;;;;;;6242981;23;20407;-75
2023/07/17 12:42:46;;;;;;;18.80;17.97;;;36.50;39.50;;;;;;6242905;23;20543;-75
2023/07/17 12:45:13;;;;;;;19.53;18.20;;;36.40;39.40;;;;;;6242994;23;20726;-74
2023/07/17 12:47:39;;;;;;;18.23;17.37;;;36.00;40.20;;;;;;6243156;23;20412;-74
2023/07/17 12:50:08;;;;;;;19.43;18.33;;;35.20;40.80;;;;;;6242853;23;20809;-74
2023/07/17 12:52:34;;;;;;;18.00;17.00;;;34.20;41.70;;;;;;6243131;23;20407;-74
2023/07/17 12:55:01;;;;;;;18.53;17.70;;;33.90;42.40;;;;;;6241878;22;20448;-74
2023/07/17 12:57:28;;;;;;;18.27;17.37;;;33.80;42.10;;;;;;6242723;23;20407;-74
2023/07/17 12:59:56;;;;;;;17.90;16.80;;;33.50;42.70;;;;;;6243022;23;20707;-74
2023/07/17 13:02:24;;;;;;;19.03;17.90;;;33.10;43.00;;;;;;6243105;23;20412;-74
2023/07/17 13:04:51;;;;;;;17.30;16.40;;;32.60;44.30;;;;;;6242869;23;20716;-73
2023/07/17 13:07:18;;;;;;;16.50;15.60;;;32.40;45.00;;;;;;6242695;23;20408;-73
2023/07/17 13:09:44;;;;;;;16.50;15.60;;;32.40;44.00;;;;;;6242129;23;20444;-73
2023/07/17 13:12:11;;;;;;;17.67;16.87;;;32.30;44.70;;;;;;6242691;23;20407;-74
2023/07/17 13:14:38;;;;;;;18.30;17.50;;;32.60;44.90;;;;;;6242989;23;20408;-74
2023/07/17 13:17:07;;;;;;;17.37;16.23;;;32.40;45.20;;;;;;6242150;23;20411;-74
2023/07/17 13:19:35;;;;;;;17.90;17.00;;;32.10;44.70;;;;;;6241999;23;20444;-73
2023/07/17 13:22:02;;;;;;;17.23;16.33;;;32.00;44.70;;;;;;6242533;23;20412;-74
2023/07/17 13:24:29;;;;;;;17.80;17.00;;;32.20;45.50;;;;;;6242340;23;20414;-73
2023/07/17 13:26:55;;;;;;;17.53;16.57;;;32.00;46.00;;;;;;6242306;23;20415;-74
2023/07/17 13:29:22;;;;;;;16.77;16.00;;;31.90;46.10;;;;;;6242713;23;20749;-74
2023/07/17 13:31:49;;;;;;;17.17;16.27;;;31.80;46.80;;;;;;6242306;23;20415;-74
2023/07/17 13:34:17;;;;;;;17.93;16.93;;;32.00;45.80;;;;;;6242275;23;20489;-74
2023/07/17 13:36:44;;;;;;;19.13;18.23;;;31.60;46.10;;;;;;6242153;23;20408;-75
2023/07/17 13:39:11;;;;;;;18.17;17.17;;;30.60;47.50;;;;;;6242165;23;20730;-73
2023/07/17 13:41:43;;;;;;;17.53;16.63;;;30.20;49.50;;;;;;6242502;23;20412;-74
2023/07/17 13:44:11;;;;;;;18.30;17.33;;;30.00;50.40;;;;;;6242321;23;20415;-74
2023/07/17 13:46:38;;;;;;;18.80;17.60;;;30.00;50.20;;;;;;6242426;23;20412;-74
2023/07/17 13:49:05;;;;;;;17.80;16.90;;;30.10;50.00;;;;;;6242403;23;20412;-74
2023/07/17 13:51:33;;;;;;;19.30;18.10;;;30.20;49.70;;;;;;6241804;23;20444;-74
2023/07/17 13:54:01;;;;;;;17.13;16.10;;;30.60;49.40;;;;;;6241973;22;20493;-73